Time;durP1;ratioP1;P1;durP2;ratioP2;P2;SDS_P1;SDS_P2;PMS_P1;PMS_P2;Temp;Humidity;BMP_temperature;BMP_pressure;BME280_temperature;BME280_humidity;BME280_pressure;Samples;Min_cycle;Max_cycle;Signal;HPM_P1;HPM_P2
2021/12/28 00:01:11;;;;;;;;;0.00;0.00;;;;;16.41;91.02;98952.09;5078229;28;61784;-74
2021/12/28 00:03:40;;;;;;;;;0.00;0.00;;;;;16.40;90.38;98937.13;5062717;28;61806;-74
2021/12/28 00:06:06;;;;;;;;;0.00;0.00;;;;;16.40;90.75;98931.81;5062088;28;62074;-74
2021/12/28 00:08:31;;;;;;;;;2.25;0.00;;;;;16.40;89.89;98937.13;5077712;28;61980;-74
2021/12/28 00:10:58;;;;;;;;;0.00;0.00;;;;;16.42;90.87;98930.03;5077968;28;61888;-74
2021/12/28 00:13:25;;;;;;;;;0.00;0.00;;;;;16.44;90.49;98926.47;5062533;28;61804;-74
2021/12/28 00:18:24;;;;;;;;;0.25;0.00;;;;;16.41;90.04;98915.94;5062209;28;62046;-74
2021/12/28 00:20:52;;;;;;;;;0.00;0.00;;;;;16.45;89.47;98930.00;5062048;28;61977;-74
2021/12/28 00:23:22;;;;;;;;;0.00;0.00;;;;;16.48;89.88;98922.91;5062348;28;61781;-74
2021/12/28 00:25:50;;;;;;;;;0.50;0.50;;;;;16.45;89.55;98922.06;5061547;28;61936;-74
2021/12/28 00:28:16;;;;;;;;;1.00;0.00;;;;;16.43;89.87;98918.53;5062220;28;61948;-74
2021/12/28 00:30:42;;;;;;;;;0.00;0.00;;;;;16.45;89.72;98917.66;5077600;28;61793;-74
2021/12/28 00:33:08;;;;;;;;;1.25;0.00;;;;;16.46;90.22;98910.59;5062783;28;61874;-74
2021/12/28 00:35:36;;;;;;;;;0.00;0.00;;;;;16.42;89.41;98909.72;5064675;28;61906;-74
2021/12/28 00:38:04;;;;;;;;;0.00;0.00;;;;;16.43;89.60;98913.25;5081381;27;61975;-74
2021/12/28 00:40:31;;;;;;;;;0.25;0.25;;;;;16.46;89.85;98906.16;5065667;28;61863;-74
2021/12/28 00:42:57;;;;;;;;;2.00;0.00;;;;;16.47;89.53;98907.91;5066031;28;61924;-74
2021/12/28 00:45:23;;;;;;;;;0.25;0.25;;;;;16.46;89.83;98903.50;5064794;28;62262;-74
2021/12/28 00:47:49;;;;;;;;;0.00;0.00;;;;;16.46;89.88;98900.84;5065666;28;61844;-74
2021/12/28 00:50:17;;;;;;;;;0.00;0.00;;;;;16.48;89.91;98908.78;5065179;28;61854;-74
2021/12/28 00:52:43;;;;;;;;;0.00;0.00;;;;;16.49;89.96;98905.25;5065662;28;61785;-74
2021/12/28 00:55:10;;;;;;;;;0.25;0.25;;;;;16.47;90.19;98897.31;5064836;28;63190;-74
2021/12/28 00:57:36;;;;;;;;;3.75;1.25;;;;;16.50;89.81;98907.00;5065132;28;62046;-74
2021/12/28 01:00:07;;;;;;;;;1.00;1.00;;;;;16.48;89.64;98907.03;5080979;27;61991;-74
2021/12/28 01:02:33;;;;;;;;;2.00;1.00;;;;;16.51;90.11;98917.56;5065476;28;61846;-74
2021/12/28 01:04:59;;;;;;;;;0.00;0.00;;;;;16.47;89.44;98910.53;5064694;28;61819;-74
2021/12/28 01:07:24;;;;;;;;;0.00;0.00;;;;;16.51;89.83;98906.09;5080707;28;62059;-74
2021/12/28 01:09:50;;;;;;;;;0.00;0.00;;;;;16.48;89.89;98896.44;5065494;28;61924;-74
2021/12/28 01:12:15;;;;;;;;;1.00;0.00;;;;;16.47;89.82;98909.69;5065528;28;61926;-74
2021/12/28 01:14:40;;;;;;;;;0.00;0.00;;;;;16.52;90.13;98914.03;5079880;28;64915;-74
2021/12/28 01:17:06;;;;;;;;;0.00;0.00;;;;;16.51;90.21;98922.88;5065279;28;61844;-74
2021/12/28 01:19:31;;;;;;;;;0.00;0.00;;;;;16.56;90.15;98925.50;5064732;28;61863;-74
2021/12/28 01:21:57;;;;;;;;;1.00;0.00;;;;;16.55;90.29;98924.59;5065343;28;61900;-74
2021/12/28 01:24:24;;;;;;;;;0.25;0.00;;;;;16.60;90.45;98918.38;5064510;28;61909;-74
2021/12/28 01:26:49;;;;;;;;;1.00;0.00;;;;;16.57;90.28;98903.41;5064651;28;61785;-74
2021/12/28 01:29:15;;;;;;;;;0.00;0.00;;;;;16.59;90.41;98908.69;5064991;28;61956;-74
2021/12/28 01:31:41;;;;;;;;;0.00;0.00;;;;;16.51;90.62;98904.31;5064842;28;61733;-74
2021/12/28 01:34:08;;;;;;;;;0.00;0.00;;;;;16.45;90.68;98909.72;5045418;28;61890;-74
2021/12/28 01:36:33;;;;;;;;;0.00;0.00;;;;;16.38;90.80;98920.38;5044693;28;62049;-74
2021/12/28 01:38:59;;;;;;;;;0.00;0.00;;;;;16.36;90.75;98920.38;5044793;28;62119;-74
2021/12/28 01:41:25;;;;;;;;;0.00;0.00;;;;;16.32;90.92;98931.88;5045038;28;61806;-74
2021/12/28 01:43:58;;;;;;;;;0.00;0.00;;;;;16.29;91.11;98916.03;5044056;28;62441;-74
2021/12/28 01:46:24;;;;;;;;;0.75;0.00;;;;;16.24;91.08;98931.97;5043400;28;61719;-74
2021/12/28 01:48:50;;;;;;;;;0.00;0.00;;;;;16.21;91.37;98939.03;5042776;28;61738;-74
2021/12/28 01:51:18;;;;;;;;;0.00;0.00;;;;;16.30;91.36;98941.59;5044533;28;61903;-74
2021/12/28 01:53:46;;;;;;;;;0.00;0.00;;;;;16.32;90.98;98937.16;5043887;28;61892;-74
2021/12/28 01:56:14;;;;;;;;;0.00;0.00;;;;;16.38;90.94;98947.72;5044119;28;61946;-74
2021/12/28 01:58:40;;;;;;;;;0.00;0.00;;;;;16.30;90.84;98960.13;5044387;28;61766;-74
2021/12/28 02:01:07;;;;;;;;;0.00;0.00;;;;;16.49;90.51;98961.72;5044595;28;62021;-74
2021/12/28 02:03:35;;;;;;;;;0.00;0.00;;;;;16.57;90.23;98966.97;5043529;28;61840;-74
2021/12/28 02:06:01;;;;;;;;;0.00;0.00;;;;;16.61;89.92;98971.34;5044198;28;62011;-74
2021/12/28 02:08:26;;;;;;;;;0.00;0.00;;;;;16.61;88.92;98981.06;5042996;28;61980;-74
2021/12/28 02:10:53;;;;;;;;;0.00;0.00;;;;;16.62;88.93;98996.06;5044185;28;61766;-74
2021/12/28 02:13:19;;;;;;;;;0.00;0.00;;;;;16.23;88.97;98999.03;5043668;28;62281;-74
2021/12/28 02:15:45;;;;;;;;;0.00;0.00;;;;;16.57;88.23;98990.81;5059324;28;61940;-74
2021/12/28 02:18:13;;;;;;;;;0.00;0.00;;;;;16.62;88.00;98993.41;5042678;28;61907;-74
2021/12/28 02:20:39;;;;;;;;;0.00;0.00;;;;;16.53;87.69;98992.59;5043938;28;61825;-74
2021/12/28 02:23:05;;;;;;;;;0.00;0.00;;;;;16.46;87.67;99004.16;5058865;28;64012;-74
2021/12/28 02:25:31;;;;;;;;;0.00;0.00;;;;;16.37;88.11;99028.06;5043660;28;61869;-74
2021/12/28 02:27:58;;;;;;;;;0.25;0.00;;;;;16.35;87.58;99024.53;5043635;28;61903;-74
2021/12/28 02:30:23;;;;;;;;;0.00;0.00;;;;;16.30;87.77;99028.97;5044046;28;61791;-74
2021/12/28 02:32:50;;;;;;;;;1.00;0.00;;;;;16.26;88.10;99035.19;5054958;28;61881;-74
2021/12/28 02:35:19;;;;;;;;;1.00;0.00;;;;;16.17;87.61;99035.25;5063718;28;61796;-74
2021/12/28 02:37:45;;;;;;;;;0.00;0.00;;;;;16.13;88.01;99048.53;5064033;28;61914;-74
2021/12/28 02:40:14;;;;;;;;;0.00;0.00;;;;;16.15;87.93;99054.69;5064123;28;62032;-74
2021/12/28 02:42:40;;;;;;;;;0.00;0.00;;;;;16.03;88.25;99059.16;5063327;28;61927;-74
2021/12/28 02:45:10;;;;;;;;;0.00;0.00;;;;;16.09;87.87;99061.78;5063506;28;61987;-74
2021/12/28 02:47:41;;;;;;;;;0.00;0.00;;;;;16.03;88.24;99075.94;5079179;27;61875;-74
2021/12/28 02:50:11;;;;;;;;;0.00;0.00;;;;;15.96;88.20;99082.16;5063681;28;62151;-74
2021/12/28 02:52:38;;;;;;;;;1.00;1.00;;;;;15.97;88.54;99085.66;5062774;28;61860;-74
2021/12/28 02:55:10;;;;;;;;;0.00;0.00;;;;;16.02;88.11;99097.97;5063140;28;61856;-74
2021/12/28 02:57:36;;;;;;;;;0.00;0.00;;;;;16.05;87.61;99097.97;5063035;28;61990;-74
2021/12/28 03:00:06;;;;;;;;;0.00;0.00;;;;;16.12;87.34;99112.91;5063410;28;61878;-74
2021/12/28 03:02:32;;;;;;;;;1.00;0.00;;;;;16.19;87.14;99119.06;5062966;28;62925;-74
2021/12/28 03:04:57;;;;;;;;;0.00;0.00;;;;;16.27;87.17;99124.31;5079088;28;61838;-74
2021/12/28 03:07:23;;;;;;;;;0.00;0.00;;;;;16.32;86.98;99122.53;5063610;28;61996;-74
2021/12/28 03:09:49;;;;;;;;;1.00;0.00;;;;;16.37;86.72;99123.41;5063657;28;62089;-74
2021/12/28 03:12:14;;;;;;;;;1.00;0.00;;;;;16.38;86.36;99118.97;5062743;28;62966;-74
2021/12/28 03:14:40;;;;;;;;;0.00;0.00;;;;;16.42;86.59;99120.72;5078947;27;62138;-74
2021/12/28 03:17:06;;;;;;;;;1.00;0.00;;;;;16.42;86.13;99129.53;5063025;28;62003;-74
2021/12/28 03:19:32;;;;;;;;;1.00;0.00;;;;;16.40;85.94;99119.84;5063386;28;61803;-74
2021/12/28 03:21:58;;;;;;;;;1.25;0.00;;;;;16.41;86.23;99117.19;5062545;28;62741;-74
2021/12/28 03:24:25;;;;;;;;;0.50;0.00;;;;;16.40;86.06;99115.41;5063292;28;61989;-74
2021/12/28 03:26:51;;;;;;;;;0.00;0.00;;;;;16.45;85.83;99123.31;5062870;28;62062;-74
2021/12/28 03:29:16;;;;;;;;;0.00;0.00;;;;;16.49;85.47;99131.25;5063360;28;61815;-74
2021/12/28 03:31:42;;;;;;;;;0.00;0.00;;;;;16.51;85.53;99129.47;5077754;28;63852;-74
2021/12/28 03:34:07;;;;;;;;;0.00;0.00;;;;;16.53;85.00;99125.03;5062591;28;61898;-74
2021/12/28 03:36:41;;;;;;;;;0.00;0.00;;;;;16.56;84.93;99138.28;5063279;28;61884;-74
2021/12/28 03:39:07;;;;;;;;;0.00;0.00;;;;;16.59;85.26;99137.38;5063141;28;61832;-74
2021/12/28 03:41:33;;;;;;;;;0.00;0.00;;;;;16.61;85.09;99138.25;5062510;28;61785;-74
2021/12/28 03:44:01;;;;;;;;;1.00;0.00;;;;;16.58;85.03;99146.19;5062304;28;62367;-74
2021/12/28 03:46:28;;;;;;;;;0.25;0.00;;;;;16.55;85.24;99143.56;5062956;28;61845;-74
2021/12/28 03:48:54;;;;;;;;;0.00;0.00;;;;;16.59;84.93;99144.44;5063240;28;62050;-74
2021/12/28 03:51:20;;;;;;;;;0.00;0.00;;;;;16.59;84.85;99147.09;5062033;28;62696;-74
2021/12/28 03:53:47;;;;;;;;;0.00;0.00;;;;;16.56;84.80;99153.31;5062564;28;61836;-74
2021/12/28 03:56:15;;;;;;;;;0.25;0.00;;;;;16.58;85.07;99154.13;5061208;28;63049;-74
2021/12/28 03:58:42;;;;;;;;;0.00;0.00;;;;;16.58;85.05;99143.53;5062622;28;61800;-74
2021/12/28 04:01:11;;;;;;;;;0.00;0.00;;;;;16.59;85.26;99158.56;5060561;28;64182;-74
2021/12/28 04:03:37;;;;;;;;;1.00;0.00;;;;;16.64;85.23;99161.19;5062391;28;61909;-74
2021/12/28 04:06:07;;;;;;;;;0.50;0.00;;;;;16.60;84.96;99151.50;5062492;28;61768;-74
2021/12/28 04:08:34;;;;;;;;;0.00;0.00;;;;;16.66;84.80;99157.63;5060559;28;62050;-74
2021/12/28 04:11:15;;;;;;;;;1.00;0.00;;;;;16.70;84.71;99159.38;5061996;28;62833;-74
2021/12/28 04:13:44;;;;;;;;;0.00;0.00;;;;;16.72;84.24;99151.41;5062450;28;62167;-74
2021/12/28 04:16:11;;;;;;;;;0.00;0.00;;;;;16.79;84.68;99161.06;5062170;28;62080;-74
2021/12/28 04:18:37;;;;;;;;;1.00;0.00;;;;;16.81;84.42;99163.75;5062800;28;61695;-74
2021/12/28 04:21:02;;;;;;;;;0.00;0.00;;;;;16.76;84.05;99161.97;5061655;28;63392;-74
2021/12/28 04:23:28;;;;;;;;;1.00;0.00;;;;;16.75;84.05;99159.31;5062510;28;61732;-74
2021/12/28 04:25:54;;;;;;;;;1.00;0.00;;;;;16.71;84.23;99160.25;5062164;28;61789;-74
2021/12/28 04:28:19;;;;;;;;;0.25;0.00;;;;;16.72;84.47;99170.84;5062118;28;61741;-74
2021/12/28 04:30:44;;;;;;;;;0.00;0.00;;;;;16.70;84.20;99180.56;5061503;28;62137;-74
2021/12/28 04:33:10;;;;;;;;;0.00;0.00;;;;;16.73;83.86;99177.00;5051321;28;61747;-74
2021/12/28 04:35:35;;;;;;;;;0.00;0.00;;;;;16.76;84.15;99180.53;5040668;28;62023;-74
2021/12/28 04:38:02;;;;;;;;;0.00;0.00;;;;;16.79;84.05;99178.75;5042224;28;61762;-74
2021/12/28 04:40:28;;;;;;;;;1.75;0.00;;;;;16.77;83.62;99187.59;5041224;28;61844;-74
2021/12/28 04:42:53;;;;;;;;;0.50;0.00;;;;;16.80;83.65;99186.72;5041689;28;61960;-74
2021/12/28 04:45:19;;;;;;;;;1.25;0.00;;;;;16.83;83.54;99189.34;5041875;28;61931;-74
2021/12/28 04:47:45;;;;;;;;;0.00;0.00;;;;;16.80;83.47;99173.47;5042244;28;61867;-74
2021/12/28 04:50:12;;;;;;;;;0.00;0.00;;;;;16.83;83.31;99175.22;5056570;28;63771;-74
2021/12/28 04:52:39;;;;;;;;;0.50;0.00;;;;;16.84;83.30;99185.81;5057129;28;62161;-74
2021/12/28 04:55:10;;;;;;;;;0.00;0.00;;;;;16.80;82.86;99169.94;5041787;28;62112;-74
2021/12/28 04:57:36;;;;;;;;;0.00;0.00;;;;;16.82;82.96;99174.34;5041924;28;61962;-74
2021/12/28 05:00:05;;;;;;;;;0.00;0.00;;;;;16.85;83.08;99181.41;5040941;28;62039;-74
2021/12/28 05:02:30;;;;;;;;;1.00;0.00;;;;;16.83;82.45;99185.81;5041611;28;61775;-74
2021/12/28 05:04:56;;;;;;;;;0.00;0.00;;;;;16.87;82.51;99204.34;5041623;28;62195;-74
2021/12/28 05:07:21;;;;;;;;;1.00;0.00;;;;;16.90;81.81;99203.44;5041660;28;62161;-74
2021/12/28 05:09:47;;;;;;;;;2.00;0.00;;;;;16.88;81.57;99192.88;5041013;28;62617;-74
2021/12/28 05:12:12;;;;;;;;;1.00;0.00;;;;;16.93;81.73;99206.94;5056870;28;61923;-74
2021/12/28 05:14:42;;;;;;;;;0.00;0.00;;;;;16.90;81.13;99201.69;5041521;28;61657;-74
2021/12/28 05:17:08;;;;;;;;;0.00;0.00;;;;;16.94;80.99;99219.28;5041788;28;61802;-74
2021/12/28 05:19:34;;;;;;;;;1.00;0.00;;;;;16.98;81.01;99227.25;5041897;28;61843;-74
2021/12/28 05:22:00;;;;;;;;;1.00;0.00;;;;;17.02;80.77;99237.81;5044874;28;61802;-74
2021/12/28 05:24:25;;;;;;;;;2.00;0.00;;;;;16.99;80.49;99227.25;5044601;28;61786;-74
2021/12/28 05:26:52;;;;;;;;;0.00;0.00;;;;;17.02;80.49;99232.50;5044723;28;61761;-74
2021/12/28 05:29:18;;;;;;;;;0.00;0.00;;;;;17.12;80.63;99242.16;5044080;28;61910;-74
2021/12/28 05:31:43;;;;;;;;;0.00;0.00;;;;;17.15;80.57;99246.56;5047941;28;62201;-74
2021/12/28 05:34:09;;;;;;;;;0.00;0.00;;;;;17.16;80.26;99249.22;5064378;28;61873;-74
2021/12/28 05:36:35;;;;;;;;;0.75;0.00;;;;;17.12;80.27;99246.59;5080609;28;61875;-74
2021/12/28 05:39:00;;;;;;;;;0.00;0.00;;;;;17.11;80.34;99248.34;5064400;28;62159;-74
2021/12/28 05:41:26;;;;;;;;;0.00;0.00;;;;;17.11;79.98;99252.78;5079912;28;61959;-74
2021/12/28 05:43:51;;;;;;;;;0.50;0.00;;;;;17.11;79.65;99266.03;5064977;28;62135;-74
2021/12/28 05:46:16;;;;;;;;;2.75;0.00;;;;;17.13;80.25;99259.81;5064842;28;61879;-74
2021/12/28 05:48:42;;;;;;;;;0.00;0.00;;;;;17.10;80.01;99259.84;5064007;28;61796;-74
2021/12/28 05:51:07;;;;;;;;;0.00;0.00;;;;;17.13;80.10;99262.47;5064830;28;61869;-74
2021/12/28 05:53:33;;;;;;;;;0.50;0.00;;;;;17.15;79.88;99279.25;5064727;28;61779;-74
2021/12/28 05:55:58;;;;;;;;;1.00;0.00;;;;;17.18;79.85;99265.09;5064317;28;61726;-74
2021/12/28 05:58:24;;;;;;;;;1.00;0.00;;;;;17.19;79.20;99263.34;5063957;28;62750;-74
2021/12/28 06:00:49;;;;;;;;;1.00;1.00;;;;;17.12;78.64;99283.72;5064464;28;61934;-74
2021/12/28 06:03:15;;;;;;;;;0.00;0.00;;;;;17.16;79.27;99281.03;5064634;28;62071;-74
2021/12/28 06:05:40;;;;;;;;;5.00;0.25;;;;;17.19;78.91;99287.22;5064654;28;62177;-74
2021/12/28 06:08:06;;;;;;;;;3.25;0.00;;;;;17.21;78.30;99285.44;5079383;28;63606;-75
2021/12/28 06:10:31;;;;;;;;;3.75;0.00;;;;;17.21;78.06;99293.38;5064114;28;62065;-75
2021/12/28 06:12:57;;;;;;;;;0.00;0.00;;;;;17.17;78.03;99290.72;5064612;28;61983;-75
2021/12/28 06:15:22;;;;;;;;;2.00;1.00;;;;;17.20;77.89;99299.56;5079859;27;62055;-76
2021/12/28 06:17:48;;;;;;;;;1.00;0.00;;;;;17.24;77.68;99307.47;5063713;28;62776;-75
2021/12/28 06:20:13;;;;;;;;;2.00;0.00;;;;;17.21;77.30;99307.50;5079598;28;61871;-74
2021/12/28 06:22:38;;;;;;;;;1.75;1.00;;;;;17.25;77.48;99303.09;5064080;28;62547;-75
2021/12/28 06:25:07;;;;;;;;;0.00;0.00;;;;;17.22;76.86;99306.59;5064340;28;61913;-74
2021/12/28 06:27:32;;;;;;;;;4.25;1.50;;;;;17.20;77.07;99311.03;5063439;28;62685;-74
2021/12/28 06:29:58;;;;;;;;;1.25;1.00;;;;;17.25;77.47;99319.88;5063859;28;61790;-75
2021/12/28 06:32:23;;;;;;;;;1.50;0.00;;;;;17.22;76.98;99329.59;5074005;28;61833;-75
2021/12/28 06:34:48;;;;;;;;;2.00;0.00;;;;;17.13;77.00;99335.84;5079527;28;62143;-75
2021/12/28 06:37:14;;;;;;;;;0.00;0.00;;;;;17.04;76.51;99341.19;5063547;28;61869;-75
2021/12/28 06:39:39;;;;;;;;;5.50;0.50;;;;;16.95;76.50;99345.66;5063735;28;61769;-75
2021/12/28 06:42:05;;;;;;;;;2.00;0.00;;;;;16.91;76.03;99362.47;5064145;28;61786;-75
2021/12/28 06:44:31;;;;;;;;;3.50;1.00;;;;;16.89;76.59;99363.34;5064247;28;61780;-75
2021/12/28 06:46:56;;;;;;;;;0.75;0.25;;;;;16.85;76.40;99357.19;5063113;28;63312;-75
2021/12/28 06:49:22;;;;;;;;;0.00;0.00;;;;;16.83;76.26;99356.31;5063644;28;61825;-75
2021/12/28 06:51:47;;;;;;;;;0.00;0.00;;;;;16.92;75.77;99364.25;5079172;28;61892;-75
2021/12/28 06:54:13;;;;;;;;;6.50;0.50;;;;;17.01;75.44;99354.44;5079356;27;61725;-73
2021/12/28 06:56:39;;;;;;;;;2.50;0.00;;;;;17.04;75.73;99354.47;5050562;28;61987;-76
2021/12/28 06:59:04;;;;;;;;;4.50;0.00;;;;;17.02;74.67;99350.94;5053692;28;62013;-76
2021/12/28 07:01:30;;;;;;;;;0.25;0.25;;;;;17.03;74.83;99357.97;5051767;28;61928;-76
2021/12/28 07:03:55;;;;;;;;;2.25;1.00;;;;;17.10;74.97;99357.09;5061627;28;62228;-76
2021/12/28 07:06:23;;;;;;;;;2.00;1.00;;;;;17.09;74.36;99358.81;5063008;28;62675;-77
2021/12/28 07:08:49;;;;;;;;;0.00;0.00;;;;;17.10;74.77;99370.34;5059553;28;62115;-75
2021/12/28 07:11:16;;;;;;;;;3.00;1.00;;;;;17.19;74.53;99350.84;5069996;28;61811;-76
2021/12/28 07:13:41;;;;;;;;;5.00;1.00;;;;;17.14;74.04;99365.00;5043332;28;61793;-76
2021/12/28 07:16:07;;;;;;;;;3.25;1.00;;;;;17.16;74.15;99368.53;5060968;28;61949;-76
2021/12/28 07:18:32;;;;;;;;;3.75;1.50;;;;;17.19;74.06;99353.50;5063107;28;61978;-76
2021/12/28 07:20:58;;;;;;;;;0.50;0.50;;;;;17.21;73.77;99357.91;5063144;28;61844;-75
2021/12/28 07:23:24;;;;;;;;;5.50;2.00;;;;;17.07;73.53;99357.94;5063374;28;62032;-73
2021/12/28 07:25:53;;;;;;;;;1.75;0.00;;;;;17.16;74.03;99383.56;5055498;28;62507;-73
2021/12/28 07:28:19;;;;;;;;;2.00;1.00;;;;;17.18;73.85;99376.47;5053759;28;61760;-72
2021/12/28 07:30:44;;;;;;;;;0.25;0.00;;;;;17.09;73.93;99379.16;5052033;28;61968;-72
2021/12/28 07:33:10;;;;;;;;;2.00;1.00;;;;;17.13;74.05;99376.47;5053168;28;62151;-73
2021/12/28 07:35:36;;;;;;;;;1.50;1.00;;;;;17.17;74.29;99380.88;5053929;28;61789;-73
2021/12/28 07:38:01;;;;;;;;;5.25;1.00;;;;;17.15;74.03;99387.09;5052692;28;61758;-74
2021/12/28 07:40:27;;;;;;;;;1.25;0.50;;;;;17.15;74.53;99385.31;5041646;28;61871;-73
2021/12/28 07:42:53;;;;;;;;;2.75;0.75;;;;;17.21;74.56;99388.84;5068948;28;62204;-73
2021/12/28 07:45:24;;;;;;;;;0.00;0.00;;;;;17.27;74.62;99396.78;5056681;28;62670;-73
2021/12/28 07:47:54;;;;;;;;;5.25;1.00;;;;;17.27;74.33;99407.38;5063024;28;62228;-76
2021/12/28 07:50:20;;;;;;;;;2.00;0.00;;;;;17.22;74.75;99418.00;5062236;28;61909;-76
2021/12/28 07:52:47;;;;;;;;;1.00;1.00;;;;;17.16;74.50;99428.66;5061693;28;62517;-74
2021/12/28 07:55:15;;;;;;;;;0.25;0.25;;;;;17.24;74.87;99431.25;5061794;28;62110;-74
2021/12/28 07:57:41;;;;;;;;;2.00;1.00;;;;;17.17;75.34;99425.09;5062289;28;61960;-75
2021/12/28 08:00:10;;;;;;;;;3.25;0.25;;;;;17.17;75.85;99419.78;5060913;28;61803;-75
2021/12/28 08:02:35;;;;;;;;;2.00;1.00;;;;;17.20;75.62;99416.25;5060207;28;61876;-75
2021/12/28 08:05:01;;;;;;;;;3.75;1.00;;;;;17.19;75.74;99433.06;5051799;28;62762;-75
2021/12/28 08:07:26;;;;;;;;;0.50;0.00;;;;;17.20;76.01;99438.31;5050963;28;61915;-75
2021/12/28 08:09:51;;;;;;;;;0.75;0.00;;;;;17.15;77.73;99441.00;5052344;28;61822;-75
2021/12/28 08:12:17;;;;;;;;;0.25;0.25;;;;;17.09;78.00;99445.44;5051143;28;62246;-75
2021/12/28 08:14:42;;;;;;;;;0.00;0.00;;;;;17.05;77.99;99449.00;5050101;28;62817;-75
2021/12/28 08:17:08;;;;;;;;;0.50;0.50;;;;;17.15;77.88;99459.56;5049753;28;61904;-75
2021/12/28 08:19:34;;;;;;;;;0.50;0.50;;;;;17.12;77.60;99459.59;5042302;28;61761;-75
2021/12/28 08:21:59;;;;;;;;;2.50;0.00;;;;;17.17;77.40;99473.69;5042574;28;61778;-76
2021/12/28 08:24:25;;;;;;;;;0.75;0.75;;;;;17.21;77.56;99479.00;5041646;28;62626;-76
2021/12/28 08:26:50;;;;;;;;;3.00;0.00;;;;;17.19;77.54;99481.66;5041887;28;61854;-77
2021/12/28 08:29:15;;;;;;;;;1.00;1.00;;;;;17.16;77.72;99495.81;5046037;28;62055;-74
2021/12/28 08:31:41;;;;;;;;;2.50;0.75;;;;;17.13;77.39;99485.19;5058009;28;61845;-74
2021/12/28 08:34:06;;;;;;;;;0.00;0.00;;;;;17.15;77.51;99480.78;5060635;28;61917;-75
2021/12/28 08:36:32;;;;;;;;;0.50;0.00;;;;;17.15;77.34;99493.16;5060735;28;61825;-74
2021/12/28 08:38:57;;;;;;;;;2.50;1.00;;;;;17.11;77.29;99505.53;5061770;28;61770;-74
2021/12/28 08:41:23;;;;;;;;;0.00;0.00;;;;;17.12;77.68;99503.78;5060555;28;61881;-75
2021/12/28 08:43:49;;;;;;;;;0.75;0.00;;;;;17.14;78.21;99504.66;5061641;28;62670;-74
2021/12/28 08:46:15;;;;;;;;;0.00;0.00;;;;;17.16;78.63;99501.13;5061706;28;62290;-75
2021/12/28 08:48:41;;;;;;;;;1.50;0.50;;;;;17.15;79.32;99509.94;5060430;28;61842;-75
2021/12/28 08:51:07;;;;;;;;;0.00;0.00;;;;;17.17;79.73;99510.81;5062228;28;62030;-74
2021/12/28 08:53:33;;;;;;;;;0.00;0.00;;;;;17.08;80.07;99508.22;5061158;28;61780;-75
2021/12/28 08:55:58;;;;;;;;;1.00;0.00;;;;;17.15;79.91;99499.34;5065062;28;61772;-74
2021/12/28 08:58:24;;;;;;;;;0.50;0.25;;;;;17.13;79.78;99495.81;5065496;28;61740;-74
2021/12/28 09:00:49;;;;;;;;;0.00;0.00;;;;;17.17;79.54;99513.47;5065643;28;61732;-74
2021/12/28 09:03:15;;;;;;;;;3.00;0.50;;;;;17.11;79.26;99502.00;5064505;28;61870;-75
2021/12/28 09:05:40;;;;;;;;;0.00;0.00;;;;;17.18;79.28;99517.00;5065377;28;61702;-74
2021/12/28 09:08:09;;;;;;;;;0.75;0.00;;;;;17.08;77.93;99512.63;5064090;28;61904;-75
2021/12/28 09:10:35;;;;;;;;;0.50;0.00;;;;;17.15;77.39;99517.03;5065354;28;62339;-75
2021/12/28 09:13:01;;;;;;;;;1.00;1.00;;;;;17.11;76.91;99524.09;5064785;28;63497;-74
2021/12/28 09:15:26;;;;;;;;;1.00;0.00;;;;;17.14;76.18;99533.84;5063488;28;61803;-75
2021/12/28 09:17:52;;;;;;;;;3.00;0.25;;;;;17.14;76.13;99515.28;5065050;28;62184;-74
2021/12/28 09:20:22;;;;;;;;;0.00;0.00;;;;;17.16;75.20;99521.47;5065194;28;61834;-74
2021/12/28 09:22:47;;;;;;;;;1.00;1.00;;;;;17.21;75.19;99522.31;5064712;28;61754;-75
2021/12/28 09:25:16;;;;;;;;;1.75;0.00;;;;;17.08;74.26;99521.47;5064731;28;61666;-75
2021/12/28 09:27:43;;;;;;;;;0.75;0.75;;;;;17.14;74.05;99518.81;5063533;28;61920;-75
2021/12/28 09:30:09;;;;;;;;;1.50;1.00;;;;;17.20;73.87;99536.44;5063783;28;62077;-75
2021/12/28 09:32:35;;;;;;;;;2.75;1.00;;;;;17.26;73.29;99515.22;5063709;28;61806;-75
2021/12/28 09:35:00;;;;;;;;;5.75;1.00;;;;;17.22;72.44;99521.41;5064687;28;61747;-74
2021/12/28 09:37:26;;;;;;;;;3.00;0.00;;;;;17.26;72.66;99525.81;5064586;28;61923;-75
2021/12/28 09:39:51;;;;;;;;;1.00;0.00;;;;;17.24;72.01;99535.56;5080752;28;61959;-74
2021/12/28 09:42:18;;;;;;;;;1.00;0.00;;;;;17.30;72.08;99532.88;5079784;28;64717;-74
2021/12/28 09:44:49;;;;;;;;;0.00;0.00;;;;;17.31;71.63;99547.03;5064649;28;61845;-75
2021/12/28 09:47:15;;;;;;;;;0.00;0.00;;;;;17.30;70.78;99538.19;5064386;28;61919;-75
2021/12/28 09:49:42;;;;;;;;;1.00;1.00;;;;;17.33;70.54;99546.16;5064319;28;61777;-75
2021/12/28 09:52:08;;;;;;;;;0.75;0.50;;;;;17.32;70.30;99549.69;5062666;28;64034;-75
2021/12/28 09:54:34;;;;;;;;;2.00;0.25;;;;;17.18;69.47;99546.16;5064601;28;63127;-75
2021/12/28 09:57:02;;;;;;;;;3.25;0.25;;;;;17.37;69.46;99558.53;5062982;28;61915;-75
2021/12/28 09:59:30;;;;;;;;;1.75;1.75;;;;;17.32;68.64;99549.69;5064630;28;61937;-75
2021/12/28 10:01:56;;;;;;;;;1.00;1.00;;;;;17.32;68.21;99562.06;5079325;28;64095;-74
2021/12/28 10:04:21;;;;;;;;;2.25;1.00;;;;;17.34;67.23;99560.28;5064552;28;62029;-75
2021/12/28 10:06:47;;;;;;;;;5.25;0.00;;;;;17.41;67.21;99551.41;5063124;28;61676;-75
2021/12/28 10:09:13;;;;;;;;;1.00;1.00;;;;;17.40;65.92;99543.47;5064627;28;61833;-75
2021/12/28 10:11:40;;;;;;;;;6.50;2.00;;;;;17.39;66.08;99558.50;5079166;28;62582;-75
2021/12/28 10:14:19;;;;;;;;;5.25;2.25;;;;;17.36;65.39;99559.41;5079526;28;61966;-74
2021/12/28 10:16:51;;;;;;;;;4.75;3.25;;;;;17.32;65.09;99564.72;5063730;28;61894;-74
2021/12/28 10:19:40;;;;;;;;;7.00;2.00;;;;;17.23;64.68;99576.22;5064553;28;61808;-75
2021/12/28 10:22:19;;;;;;;;;1.00;1.00;;;;;17.30;65.10;99591.22;5063632;28;61864;-75
2021/12/28 10:24:44;;;;;;;;;3.25;1.00;;;;;17.28;64.87;99581.53;5063821;28;62134;-75
2021/12/28 10:27:16;;;;;;;;;2.00;2.00;;;;;17.27;64.17;99585.06;5064024;28;61818;-75
2021/12/28 10:29:42;;;;;;;;;3.00;1.75;;;;;17.35;64.63;99593.88;5064086;28;61812;-75
2021/12/28 10:32:20;;;;;;;;;6.00;3.00;;;;;17.36;64.17;99591.22;5076643;28;64314;-75
2021/12/28 10:34:54;;;;;;;;;4.50;2.00;;;;;17.40;63.87;99585.94;5063361;28;62071;-75
2021/12/28 10:37:48;;;;;;;;;11.00;1.00;;;;;17.38;63.87;99594.75;5063936;28;62151;-74
2021/12/28 10:40:27;;;;;;;;;10.25;4.25;;;;;17.41;64.50;99601.81;5063037;28;61875;-74
2021/12/28 10:43:02;;;;;;;;;6.75;1.00;;;;;17.41;63.13;99611.56;5061662;28;63796;-74
2021/12/28 10:45:36;;;;;;;;;11.50;3.00;;;;;17.45;63.95;99600.06;5063065;28;62047;-75
2021/12/28 10:48:23;;;;;;;;;6.50;3.00;;;;;17.52;63.38;99602.69;5063644;28;61794;-75
2021/12/28 10:51:01;;;;;;;;;7.00;3.00;;;;;17.62;63.36;99603.53;5063656;28;61834;-75
2021/12/28 10:53:37;;;;;;;;;2.75;2.00;;;;;17.64;63.09;99609.72;5062993;28;62487;-75
2021/12/28 10:56:06;;;;;;;;;15.75;3.00;;;;;17.63;62.75;99610.63;5063312;28;61804;-75
2021/12/28 10:58:39;;;;;;;;;4.50;1.50;;;;;17.68;62.97;99623.88;5063770;28;61919;-74
2021/12/28 11:01:14;;;;;;;;;6.75;1.00;;;;;17.70;62.84;99608.81;5063491;28;61847;-75
2021/12/28 11:03:43;;;;;;;;;6.50;2.75;;;;;17.73;63.00;99614.09;5063060;28;61875;-75
2021/12/28 11:06:15;;;;;;;;;7.75;2.75;;;;;17.79;62.99;99601.69;5063433;28;61782;-74
2021/12/28 11:08:42;;;;;;;;;9.25;2.25;;;;;17.79;62.48;99603.47;5061937;28;62194;-75
2021/12/28 11:11:11;;;;;;;;;3.75;1.50;;;;;17.84;62.45;99617.63;5063565;28;61810;-75
2021/12/28 11:13:37;;;;;;;;;6.75;2.00;;;;;17.80;61.58;99618.50;5062634;28;62857;-75
2021/12/28 11:16:06;;;;;;;;;2.00;1.00;;;;;17.88;61.08;99616.72;5061577;28;61829;-74
2021/12/28 11:18:39;;;;;;;;;7.00;1.50;;;;;17.82;60.41;99624.72;5061565;28;61856;-75
2021/12/28 11:21:18;;;;;;;;;2.50;1.75;;;;;17.82;60.82;99629.13;5063317;28;61750;-74
2021/12/28 11:23:47;;;;;;;;;10.25;3.50;;;;;17.87;60.84;99643.31;5062639;28;61886;-75
2021/12/28 11:26:17;;;;;;;;;0.50;0.50;;;;;17.86;61.31;99650.38;5061392;28;61828;-75
2021/12/28 11:29:00;;;;;;;;;5.50;2.25;;;;;17.95;61.03;99652.09;5062819;28;61913;-75
2021/12/28 11:31:29;;;;;;;;;5.75;3.25;;;;;18.06;60.61;99652.97;5062995;28;61977;-74
2021/12/28 11:33:57;;;;;;;;;3.25;2.25;;;;;18.19;59.26;99662.63;5062048;28;61959;-74
2021/12/28 11:36:29;;;;;;;;;2.50;1.25;;;;;18.22;58.64;99666.16;5058346;28;61819;-75